Saturday, November 17, 2018, 3:11 PM GMT
Back to Local

CYYG, Charlottetown, P. E. I.

Location: , , Canada Lat: 46.283
Local Time: 3:11 PM GMT (15:11 GMT) Lon: -63.133
Time Zone: GMT Elev: 157 ft

Show me the last for .
Show Coded

Time T Td Feel RH Dir Speed Gust Alt SLP Vis Weather Sky Remarks
2018-11-17 14:00 32 27 21 80 280° 12 17 29.70 29.71 15 -SHSN BKN025 None
2018-11-17 13:00 32 30 21 92 290° 8 17 29.65 29.67 6 -SHSN OVC020 Pressure rising rapidly
2018-11-17 12:00 32 30 19 92 330° 17 24 29.61 29.62 12 -SHSN OVC012 Pressure rising rapidly
2018-11-17 11:40 30 28 16 92 330° 17 24 29.58 29.59 6 -SHSN SCT007 BKN028 BKN140 None
2018-11-17 11:36 30 28 17 92 320° 16 23 29.58 29.59 0 -SN OVC008 None
2018-11-17 11:28 30 28 17 92 320° 14 22 29.58 29.59 6 -SN SCT010 BKN045 BKN140 Pressure rising rapidly
2018-11-17 11:00 30 28 17 92 320° 15 21 29.55 29.56 5 -SN SCT007 OVC010 None
2018-11-17 10:00 32 30 19 92 310° 14 22 29.49 29.50 2 -SN BR OVC007 Pressure rising rapidly
2018-11-17 09:47 32 30 19 92 310° 15 23 29.47 29.48 3 -SN BR BKN008 OVC020 None
2018-11-17 09:00 32 32 22 100 310° 15 - 29.43 29.44 1 -SN BR OVC008 None
2018-11-17 08:11 32 32 23 100 320° 13 - 29.39 29.40 1 -SN BR OVC005 None
2018-11-17 08:00 32 32 22 100 320° 14 - 29.38 29.39 0 -SN BR OVC004 None
2018-11-17 07:00 32 32 19 100 330° 15 23 29.33 29.34 1 -SN OVC006 Pressure rising rapidly
2018-11-17 06:00 32 32 24 100 350° 9 - 29.27 29.28 1 -SN OVC005 Pressure rising rapidly
2018-11-17 05:00 32 32 21 100 20° 16 - 29.24 29.26 1 -SN OVC008 None
2018-11-17 04:00 34 32 20 93 40° 22 29 29.22 29.23 1 -SN OVC008 None
2018-11-17 03:00 32 32 18 100 40° 21 29 29.22 29.23 1 -SN OVC007 None
2018-11-17 02:00 34 32 19 93 50° 25 37 29.24 29.25 1 -SN OVC006 None
2018-11-17 01:00 32 32 17 100 40° 23 35 29.27 29.28 1 -SN BKN006 OVC013 None
2018-11-17 00:51 32 32 17 100 40° 28 35 29.27 29.28 1 -SN BKN006 OVC013 None
2018-11-17 00:00 32 32 18 100 40° 23 29 29.32 29.33 0 -SN OVC010 None
2018-11-16 23:00 32 32 17 100 40° 22 33 29.37 29.38 0 -SN OVC005 Pressure falling rapidly
2018-11-16 22:12 32 30 19 92 40° 23 - 29.43 29.44 0 SN VV006 None
2018-11-16 22:00 30 30 15 100 40° 20 29 29.44 29.46 0 -SN VV004 None
2018-11-16 21:55 30 30 15 100 40° 20 30 29.44 29.45 0 -SN VV004 Pressure falling rapidly
2018-11-16 21:00 30 30 16 100 50° 21 26 29.48 29.49 0 -SNPL VV004 Pressure falling rapidly
2018-11-16 20:00 30 30 16 100 70° 18 26 29.54 29.56 0 -SNPL VV004 Pressure falling rapidly
2018-11-16 19:25 30 30 18 100 70° 18 - 29.60 29.62 0 -PLSN VV004 Pressure falling rapidly
2018-11-16 19:00 30 30 18 100 80° 17 - 29.65 29.67 0 -SN VV004 Pressure falling rapidly
2018-11-16 18:00 30 28 18 92 80° 12 18 29.75 29.76 0 -SN VV004 Pressure falling rapidly
2018-11-16 17:00 30 25 18 80 120° 18 - 29.84 29.86 2 -SN VV018 Pressure falling rapidly
2018-11-16 16:55 30 25 18 80 110° 13 20 29.86 29.87 2 -SN VV018 Pressure falling rapidly
2018-11-16 16:44 30 25 16 80 110° 12 24 29.87 29.88 5 -SN OVC021 Pressure falling rapidly
2018-11-16 16:33 30 25 16 80 120° 17 26 29.88 29.90 1 -SN OVC020 None
2018-11-16 16:28 30 23 16 74 110° 17 26 29.89 29.90 2 -SN OVC025 Pressure falling rapidly
2018-11-16 16:00 30 23 20 74 120° 14 - 29.94 29.95 10 -SN FEW021 OVC058 Pressure falling rapidly
2018-11-16 15:27 30 23 19 74 130° 15 - 29.98 30.00 10 -SN SCT021 OVC071 Pressure falling rapidly

Support USWX by starting your Amazon purchase here.